Autryville, North Carolina
Current Conditions -  °F | °C
As of 7:53 PM on Tuesday 27 Jan 2015 (Local Time) from KFAY Reporting Station
Clear Clear  
Wind Chill: 34°   Ceiling: Unl
Heat Index: 39°   Visibility: 10mi
Dew Point: 17°   Wind: 7mph
Humidity: 41%   Direction: 280°W
Pressure: 29.91"   Gusts: NA
Location:  35°N, 78.64°W
Report Text: KFAY 280053Z AUTO 28006KT 10SM CLR 04/M08 A2991 RMK AO2 SLP124 T00391083
Loading
Personal Weather Stations






























Interactive Weather Map New forecast layout! Learn more

10-Day Weather Forecast

Advertisements
Track Severe Weather on mobile